Terminal Aerodrome Forecast
Issued by NWS Huntsville, AL

Home | Current Version | Previous Version | Text Only | Print | Product List | Glossary On
Versions: 1 2 3 4 5 6 7 8 9 10 11 12 13 14 15 16
000
FTUS44 KHUN 241140
TAFMSL
TAF
KMSL 241140Z 2412/2512 15008G16KT P6SM BKN025 OVC050 WS018/17035KT
     FM241500 16012G20KT P6SM BKN030 OVC040
     FM241800 18012G18KT P6SM SCT035 BKN050
     FM250200 16008KT P6SM OVC050 WS020/18035KT=

USA.gov is the U.S. government's official web portal to all federal, state and local government web resources and services.